Virginia Peak (RGX), Nevada Weather observations

 Day   Time    Ave.   Ave.  Ave.  Vector  Max.   Total    Solar  
  of    of     Air    Rel.  Wind   Wind   Wind  Precip.   Rad.   
Year   Day     Temp.  Hum.  Speed  Dir.   Gust                   
2015   (PST)    F      %     mph   deg.    mph    in.     W/m2  
----------------------------------------------------------------
 115    5:15   26.0    99    9.0   267    10.8   999.00     999
 115    5:30   25.0    99    6.6   261     9.6   999.00     999
 115    5:45   25.0    99    7.2   263     7.8   999.00     999
 115    6:00   25.0    99    6.6   260     8.4   999.00     999
 115    6:15   25.0    99    7.8   265     7.8   999.00     999
 115    6:30   25.0    99    6.0   282     9.0   999.00     999
 115    6:45   25.0    99    7.2   274     9.0   999.00     999
 115    7:00   25.0    99    7.2   274     8.4   999.00     999
 115    7:15   26.0    99    6.0   263     7.2   999.00     999
 115    7:30   25.0    98    7.8   271     8.4   999.00     999
 115    7:45   25.0    98    5.4   268     7.8   999.00     999
 115    8:00  999.0   999    5.4   284     7.2   999.00     999
 115    8:15   25.0    99    4.8   999     7.2   999.00     999
 115    8:30   25.0    99    3.6   273     5.4   999.00     999
 115    8:45   25.0    99    5.4   287     6.0   999.00     999
 115    9:00   26.0   100   21.0   295    25.8   999.00     999
 115    9:15   27.0   999   19.8   278   999.0   999.00     999
 115    9:30   27.0   100   20.4   265    24.6   999.00     999
 115    9:45   27.0   100   21.6   296    24.6   999.00     999
 115   10:00   27.0   100   21.6   288    27.0   999.00     999
 115   10:15   28.0   100   16.8   276    25.8   999.00     999
 115   10:30   27.0    99   22.8   291    28.8   999.00     999
 115   10:45   27.0    99   23.4   273    27.6   999.00     999
 115   11:00   27.0    99   21.0   285    27.0   999.00     999
 115   11:15   27.0   100   27.0   999    28.2   999.00     999
 115   11:30   27.0    99   28.8   282    29.4   999.00     999
 115   11:45   26.0    99   26.4   297    30.6   999.00     999
 115   12:00   26.0    99    5.0   289    32.4   999.00     999
 115   12:15   27.0   100   24.0   269    31.8   999.00     999
 115   12:30   27.0   100   16.8   284    25.2   999.00     999
 115   12:45   28.0   100  999.0   999   999.0   999.00     999
 115   13:00   29.0   100   22.2   282    28.2   999.00     999
 115   13:15   29.0   100   23.4   282    23.4   999.00     999
 115   13:30   28.0   100   22.2   290    31.2   999.00     999
 115   13:45   28.0   100   24.6   283    30.0   999.00     999
 115   14:00   29.0   100   24.6   272    28.8   999.00     999
 115   14:15   29.0   100   27.6   275    30.0   999.00     999
 115   14:30   29.0   100   28.8   280    29.4   999.00     999
 115   14:45   27.0    99   25.8   283   999.0   999.00     999
 115   15:00   28.0   100   28.2   293    33.0   999.00     999
 115   15:15   27.0   100   22.2   279    33.6   999.00     999
 115   15:30   27.0    99   24.6   280    28.8   999.00     999
 115   15:45   27.0   100   19.2   280    29.4   999.00     999
 115   16:00  999.0   999   24.0   263    28.8   999.00     999
 115   16:15   29.0   100  999.0   999    31.8   999.00     999
 115   16:30   29.0   999   28.8   287    33.6   999.00     999
 115   16:45   29.0   100   27.6   291    36.6   999.00     999
 115   17:00   28.0   100  999.0   999    31.8   999.00     999
 115   17:15   29.0   100   27.6   304    30.6   999.00     999
 115   17:30   29.0   100   20.4   278    32.4   999.00     999
 115   17:45   28.0   100   30.0   294    31.8   999.00     999
 115   18:00   28.0   100   27.0   292    32.4   999.00     999
 115   18:15   27.0   100   28.8   286    36.0   999.00     999
 115   18:30   27.0   100   26.4   287    32.4   999.00     999
 115   18:45   27.0   100   30.6   293    31.8   999.00     999
 115   19:00   26.0    99   24.0   282    32.4   999.00     999
 115   19:15   26.0   999   28.8   291   999.0   999.00     999
 115   19:30   26.0    98   31.2   287    33.6   999.00     999
 115   19:45   26.0    99   18.0   296    28.8   999.00     999
 115   20:00   26.0    99   24.0   297    27.0   999.00     999
 115   20:15   26.0    99   21.0   285    26.4   999.00     999
 115   20:30   26.0   999   19.2   300    22.0   999.00     999
 115   20:45   26.0    99   22.8   299    24.0   999.00     999
 115   21:00   26.0    99   20.4   299    22.8   999.00     999
 115   21:15   26.0    99   20.4   295    22.8   999.00     999
 115   21:30   26.0    99   21.6   302    24.6   999.00     999
 115   21:45   26.0    99   22.8   306    25.8   999.00     999
 115   22:00   26.0    99   22.8   287    28.2   999.00     999
 115   22:15   26.0    99   15.6   282    25.8   999.00     999
 115   22:30   26.0    99   13.8   286    16.2   999.00     999
 115   22:45   26.0    99   16.8   290    18.0   999.00     999
 115   23:00   26.0    99   19.8   283    21.0   999.00     999
 115   23:15   26.0    99   19.8   297    24.0   999.00     999
 115   23:30   26.0    99   17.4   295    22.2   999.00     999
 115   23:45   26.0   999   15.6   999    18.7   999.00     999
 116    0:00   25.0    99   15.6   299    19.8   999.00     999
 116    0:15   24.0    97   18.0   306    21.6   999.00     999
 116    0:30   24.0    97  999.0   999   999.0   999.00     999
 116    0:45   24.0    96   22.8   314    23.4   999.00     999
 116    1:00   24.0    97   24.6   308    24.6   999.00     999
 116    1:15   24.0    96   21.0   310    24.6   999.00     999
 116    1:30   24.0    96   22.2   299    24.0   999.00     999
 116    1:45   23.0    96   24.0   299    25.8   999.00     999
 116    2:00   23.0    95   22.2   298    24.6   999.00     999
 116    2:15   23.0    95   18.6   306    22.8   999.00     999
 116    2:30   23.0    95   13.2   308    19.8   999.00     999
 116    2:45   23.0    96   10.8   286    17.4   999.00     999
 116    3:00   23.0    96   13.8   315    16.2   999.00     999
 116    3:15   23.0    96   16.8   307    18.0   999.00     999
 116    3:30   23.0    96   17.4   303    19.8   999.00     999
 116    3:45   23.0    95  999.0   999   999.0   999.00     999
 116    4:00   22.0    95  999.0   999    22.8   999.00     999
 116    4:15   22.0    96   12.0   269    18.6   999.00     999
 116    4:30   22.0   999   13.8   283    18.6   999.00     999
 116    4:45   22.0    95   13.8   299    17.4   999.00     999
 116    5:00   22.0    95   16.2   304    18.6   999.00     999

Return to Virginia Peak (RGX) graphs page.


Western Regional Climate Center,wrcc@dri.edu